sensor_id;sensor_type;location;lat;lon;timestamp;pressure;altitude;pressure_sealevel;temperature;humidity
23241;BME280;11789;53.482;9.862;2023-01-31T00:01:13;101776.97;;;2.38;100.00
23241;BME280;11789;53.482;9.862;2023-01-31T00:03:39;101776.97;;;2.38;100.00
23241;BME280;11789;53.482;9.862;2023-01-31T00:06:17;101774.41;;;2.38;100.00
23241;BME280;11789;53.482;9.862;2023-01-31T00:08:45;101780.31;;;2.37;100.00
23241;BME280;11789;53.482;9.862;2023-01-31T00:11:12;101792.16;;;2.35;100.00
23241;BME280;11789;53.482;9.862;2023-01-31T00:13:38;101779.31;;;2.33;100.00
23241;BME280;11789;53.482;9.862;2023-01-31T00:16:03;101780.91;;;2.31;100.00
23241;BME280;11789;53.482;9.862;2023-01-31T00:18:29;101769.78;;;2.29;100.00
23241;BME280;11789;53.482;9.862;2023-01-31T00:20:55;101775.53;;;2.25;100.00
23241;BME280;11789;53.482;9.862;2023-01-31T00:23:20;101776.25;;;2.23;100.00
23241;BME280;11789;53.482;9.862;2023-01-31T00:25:46;101770.13;;;2.19;100.00
23241;BME280;11789;53.482;9.862;2023-01-31T00:28:11;101780.19;;;2.16;100.00
23241;BME280;11789;53.482;9.862;2023-01-31T00:30:37;101790.31;;;2.15;100.00
23241;BME280;11789;53.482;9.862;2023-01-31T00:33:02;101783.53;;;2.15;100.00
23241;BME280;11789;53.482;9.862;2023-01-31T00:35:27;101787.03;;;2.17;100.00
23241;BME280;11789;53.482;9.862;2023-01-31T00:37:53;101778.50;;;2.17;100.00
23241;BME280;11789;53.482;9.862;2023-01-31T00:40:19;101778.50;;;2.17;100.00
23241;BME280;11789;53.482;9.862;2023-01-31T00:42:44;101776.03;;;2.18;100.00
23241;BME280;11789;53.482;9.862;2023-01-31T00:45:10;101776.81;;;2.17;100.00
23241;BME280;11789;53.482;9.862;2023-01-31T00:47:36;101766.56;;;2.16;100.00
23241;BME280;11789;53.482;9.862;2023-01-31T00:50:03;101763.84;;;2.13;100.00
23241;BME280;11789;53.482;9.862;2023-01-31T00:52:28;101766.34;;;2.11;100.00
23241;BME280;11789;53.482;9.862;2023-01-31T00:54:54;101780.69;;;2.09;100.00
23241;BME280;11789;53.482;9.862;2023-01-31T00:57:19;101771.31;;;2.08;100.00
23241;BME280;11789;53.482;9.862;2023-01-31T00:59:45;101766.91;;;2.05;100.00
23241;BME280;11789;53.482;9.862;2023-01-31T01:02:10;101780.41;;;2.03;100.00
23241;BME280;11789;53.482;9.862;2023-01-31T01:04:36;101777.69;;;2.00;100.00
23241;BME280;11789;53.482;9.862;2023-01-31T01:07:01;101787.75;;;1.97;100.00
23241;BME280;11789;53.482;9.862;2023-01-31T01:09:27;101789.34;;;1.95;100.00
23241;BME280;11789;53.482;9.862;2023-01-31T01:11:52;101801.22;;;1.94;100.00
23241;BME280;11789;53.482;9.862;2023-01-31T01:14:17;101805.34;;;1.92;100.00
23241;BME280;11789;53.482;9.862;2023-01-31T01:16:43;101813.00;;;1.92;100.00
23241;BME280;11789;53.482;9.862;2023-01-31T01:19:15;101809.59;;;1.92;100.00
23241;BME280;11789;53.482;9.862;2023-01-31T01:21:41;101813.81;;;1.91;100.00
23241;BME280;11789;53.482;9.862;2023-01-31T01:24:15;101805.34;;;1.92;100.00
23241;BME280;11789;53.482;9.862;2023-01-31T01:26:41;101806.41;;;1.96;100.00
23241;BME280;11789;53.482;9.862;2023-01-31T01:29:08;101801.59;;;2.02;100.00
23241;BME280;11789;53.482;9.862;2023-01-31T01:31:34;101802.69;;;2.07;100.00
23241;BME280;11789;53.482;9.862;2023-01-31T01:34:08;101786.75;;;2.11;100.00
23241;BME280;11789;53.482;9.862;2023-01-31T01:36:36;101788.63;;;2.15;100.00
23241;BME280;11789;53.482;9.862;2023-01-31T01:39:07;101789.69;;;2.19;100.00
23241;BME280;11789;53.482;9.862;2023-01-31T01:41:36;101799.28;;;2.24;100.00
23241;BME280;11789;53.482;9.862;2023-01-31T01:44:04;101806.94;;;2.24;100.00
23241;BME280;11789;53.482;9.862;2023-01-31T01:46:48;101803.81;;;2.30;100.00
23241;BME280;11789;53.482;9.862;2023-01-31T01:49:17;101798.06;;;2.34;100.00
23241;BME280;11789;53.482;9.862;2023-01-31T01:51:44;101796.44;;;2.36;100.00
23241;BME280;11789;53.482;9.862;2023-01-31T01:54:20;101802.47;;;2.38;100.00
23241;BME280;11789;53.482;9.862;2023-01-31T01:56:51;101795.03;;;2.43;100.00
23241;BME280;11789;53.482;9.862;2023-01-31T01:59:23;101796.06;;;2.46;100.00
23241;BME280;11789;53.482;9.862;2023-01-31T02:01:51;101792.66;;;2.46;100.00
23241;BME280;11789;53.482;9.862;2023-01-31T02:04:23;101801.25;;;2.48;100.00
23241;BME280;11789;53.482;9.862;2023-01-31T02:06:51;101804.66;;;2.48;100.00
23241;BME280;11789;53.482;9.862;2023-01-31T02:09:28;101803.88;;;2.49;100.00
23241;BME280;11789;53.482;9.862;2023-01-31T02:11:57;101806.44;;;2.49;100.00
23241;BME280;11789;53.482;9.862;2023-01-31T02:14:23;101815.63;;;2.46;100.00
23241;BME280;11789;53.482;9.862;2023-01-31T02:16:49;101818.00;;;2.43;100.00
23241;BME280;11789;53.482;9.862;2023-01-31T02:41:47;101853.84;;;2.44;100.00
23241;BME280;11789;53.482;9.862;2023-01-31T02:50:08;101852.50;;;2.34;100.00
23241;BME280;11789;53.482;9.862;2023-01-31T02:52:47;101842.94;;;2.30;100.00
23241;BME280;11789;53.482;9.862;2023-01-31T02:55:40;101842.88;;;2.29;100.00
23241;BME280;11789;53.482;9.862;2023-01-31T02:58:30;101834.38;;;2.28;100.00
23241;BME280;11789;53.482;9.862;2023-01-31T03:00:59;101838.66;;;2.29;100.00
23241;BME280;11789;53.482;9.862;2023-01-31T03:03:31;101841.22;;;2.29;100.00
23241;BME280;11789;53.482;9.862;2023-01-31T03:09:14;101845.34;;;2.27;100.00
23241;BME280;11789;53.482;9.862;2023-01-31T03:14:41;101834.38;;;2.28;100.00
23241;BME280;11789;53.482;9.862;2023-01-31T03:17:19;101827.59;;;2.29;100.00
23241;BME280;11789;53.482;9.862;2023-01-31T03:20:07;101824.16;;;2.28;100.00
23241;BME280;11789;53.482;9.862;2023-01-31T03:22:38;101817.22;;;2.26;100.00
23241;BME280;11789;53.482;9.862;2023-01-31T03:25:06;101817.97;;;2.23;100.00
23241;BME280;11789;53.482;9.862;2023-01-31T03:27:33;101815.19;;;2.19;100.00
23241;BME280;11789;53.482;9.862;2023-01-31T03:30:11;101801.47;;;2.17;100.00
23241;BME280;11789;53.482;9.862;2023-01-31T03:32:44;101804.81;;;2.16;100.00
23241;BME280;11789;53.482;9.862;2023-01-31T03:35:11;101805.56;;;2.13;100.00
23241;BME280;11789;53.482;9.862;2023-01-31T03:37:47;101802.84;;;2.10;100.00
23241;BME280;11789;53.482;9.862;2023-01-31T03:40:20;101807.00;;;2.08;100.00
23241;BME280;11789;53.482;9.862;2023-01-31T03:45:53;101802.63;;;2.05;100.00
23241;BME280;11789;53.482;9.862;2023-01-31T03:48:26;101814.50;;;2.05;100.00
23241;BME280;11789;53.482;9.862;2023-01-31T03:50:59;101811.16;;;2.06;100.00
23241;BME280;11789;53.482;9.862;2023-01-31T03:53:37;101808.75;;;2.09;100.00
23241;BME280;11789;53.482;9.862;2023-01-31T03:56:15;101814.78;;;2.11;100.00
23241;BME280;11789;53.482;9.862;2023-01-31T03:58:45;101805.63;;;2.15;100.00
23241;BME280;11789;53.482;9.862;2023-01-31T04:01:16;101803.94;;;2.15;100.00
23241;BME280;11789;53.482;9.862;2023-01-31T04:04:10;101802.34;;;2.17;100.00
23241;BME280;11789;53.482;9.862;2023-01-31T04:06:38;101802.50;;;2.20;100.00
23241;BME280;11789;53.482;9.862;2023-01-31T04:09:04;101793.16;;;2.21;100.00
23241;BME280;11789;53.482;9.862;2023-01-31T04:11:38;101796.59;;;2.21;100.00
23241;BME280;11789;53.482;9.862;2023-01-31T04:14:05;101802.66;;;2.23;100.00
23241;BME280;11789;53.482;9.862;2023-01-31T04:16:31;101817.16;;;2.24;100.00
23241;BME280;11789;53.482;9.862;2023-01-31T04:18:57;101807.88;;;2.26;100.00
23241;BME280;11789;53.482;9.862;2023-01-31T04:21:22;101809.63;;;2.27;100.00
23241;BME280;11789;53.482;9.862;2023-01-31T04:23:48;101810.50;;;2.28;100.00
23241;BME280;11789;53.482;9.862;2023-01-31T04:26:13;101791.00;;;2.28;100.00
23241;BME280;11789;53.482;9.862;2023-01-31T04:28:39;101788.44;;;2.28;100.00
23241;BME280;11789;53.482;9.862;2023-01-31T04:31:05;101779.97;;;2.29;100.00
23241;BME280;11789;53.482;9.862;2023-01-31T04:33:30;101777.44;;;2.29;100.00
23241;BME280;11789;53.482;9.862;2023-01-31T04:35:56;101780.97;;;2.33;100.00
23241;BME280;11789;53.482;9.862;2023-01-31T04:38:21;101780.97;;;2.33;100.00
23241;BME280;11789;53.482;9.862;2023-01-31T04:40:46;101782.81;;;2.36;100.00
23241;BME280;11789;53.482;9.862;2023-01-31T04:43:12;101778.56;;;2.36;100.00
23241;BME280;11789;53.482;9.862;2023-01-31T04:45:37;101781.19;;;2.38;100.00
23241;BME280;11789;53.482;9.862;2023-01-31T04:48:03;101782.97;;;2.39;100.00
23241;BME280;11789;53.482;9.862;2023-01-31T04:50:29;101777.34;;;2.46;100.00
23241;BME280;11789;53.482;9.862;2023-01-31T04:52:54;101785.72;;;2.43;100.00
23241;BME280;11789;53.482;9.862;2023-01-31T04:55:20;101784.84;;;2.43;100.00
23241;BME280;11789;53.482;9.862;2023-01-31T04:57:45;101794.03;;;2.39;100.00
23241;BME280;11789;53.482;9.862;2023-01-31T05:00:11;101789.72;;;2.38;100.00
23241;BME280;11789;53.482;9.862;2023-01-31T05:02:37;101791.34;;;2.36;100.00
23241;BME280;11789;53.482;9.862;2023-01-31T05:05:04;101795.72;;;2.39;100.00
23241;BME280;11789;53.482;9.862;2023-01-31T05:07:30;101795.03;;;2.43;100.00
23241;BME280;11789;53.482;9.862;2023-01-31T05:09:55;101789.16;;;2.44;100.00
23241;BME280;11789;53.482;9.862;2023-01-31T05:12:21;101791.78;;;2.45;100.00
23241;BME280;11789;53.482;9.862;2023-01-31T05:14:46;101787.59;;;2.47;100.00
23241;BME280;11789;53.482;9.862;2023-01-31T05:17:12;101789.34;;;2.48;100.00
23241;BME280;11789;53.482;9.862;2023-01-31T05:19:37;101785.22;;;2.50;100.00
23241;BME280;11789;53.482;9.862;2023-01-31T05:22:03;101783.53;;;2.51;100.00
23241;BME280;11789;53.482;9.862;2023-01-31T05:24:30;101783.53;;;2.51;100.00
23241;BME280;11789;53.482;9.862;2023-01-31T05:26:57;101785.34;;;2.53;100.00
23241;BME280;11789;53.482;9.862;2023-01-31T05:29:32;101783.75;;;2.55;100.00
23241;BME280;11789;53.482;9.862;2023-01-31T05:31:59;101763.38;;;2.57;100.00
23241;BME280;11789;53.482;9.862;2023-01-31T05:34:26;101767.62;;;2.56;100.00
23241;BME280;11789;53.482;9.862;2023-01-31T05:36:53;101760.84;;;2.57;100.00
23241;BME280;11789;53.482;9.862;2023-01-31T05:39:19;101774.62;;;2.60;100.00
23241;BME280;11789;53.482;9.862;2023-01-31T05:41:45;101772.94;;;2.61;100.00
23241;BME280;11789;53.482;9.862;2023-01-31T05:44:10;101766.16;;;2.62;100.00
23241;BME280;11789;53.482;9.862;2023-01-31T05:46:36;101761.09;;;2.63;100.00
23241;BME280;11789;53.482;9.862;2023-01-31T05:49:03;101756.81;;;2.62;100.00
23241;BME280;11789;53.482;9.862;2023-01-31T05:51:28;101751.81;;;2.64;100.00
23241;BME280;11789;53.482;9.862;2023-01-31T05:53:54;101747.47;;;2.63;100.00
23241;BME280;11789;53.482;9.862;2023-01-31T05:56:20;101749.97;;;2.61;100.00
23241;BME280;11789;53.482;9.862;2023-01-31T05:58:46;101744.84;;;2.61;100.00
23241;BME280;11789;53.482;9.862;2023-01-31T06:01:20;101746.47;;;2.59;100.00
23241;BME280;11789;53.482;9.862;2023-01-31T06:03:46;101744.72;;;2.58;100.00
23241;BME280;11789;53.482;9.862;2023-01-31T06:06:30;101744.84;;;2.61;100.00
23241;BME280;11789;53.482;9.862;2023-01-31T06:09:11;101749.25;;;2.64;100.00
23241;BME280;11789;53.482;9.862;2023-01-31T06:11:37;101741.50;;;2.62;100.00
23241;BME280;11789;53.482;9.862;2023-01-31T06:14:02;101731.38;;;2.64;100.00
23241;BME280;11789;53.482;9.862;2023-01-31T06:16:27;101736.47;;;2.64;100.00
23241;BME280;11789;53.482;9.862;2023-01-31T06:18:53;101735.72;;;2.66;100.00
23241;BME280;11789;53.482;9.862;2023-01-31T06:21:19;101734.06;;;2.67;100.00
23241;BME280;11789;53.482;9.862;2023-01-31T06:23:45;101725.53;;;2.66;100.00
23241;BME280;11789;53.482;9.862;2023-01-31T06:26:12;101718.66;;;2.65;100.00
23241;BME280;11789;53.482;9.862;2023-01-31T06:28:37;101717.72;;;2.63;100.00
23241;BME280;11789;53.482;9.862;2023-01-31T06:31:11;101715.25;;;2.65;100.00
23241;BME280;11789;53.482;9.862;2023-01-31T06:33:37;101715.97;;;2.62;100.00
23241;BME280;11789;53.482;9.862;2023-01-31T06:36:03;101706.62;;;2.63;100.00
23241;BME280;11789;53.482;9.862;2023-01-31T06:38:29;101700.66;;;2.62;100.00
23241;BME280;11789;53.482;9.862;2023-01-31T06:40:55;101707.50;;;2.63;100.00
23241;BME280;11789;53.482;9.862;2023-01-31T06:43:21;101700.66;;;2.62;100.00
23241;BME280;11789;53.482;9.862;2023-01-31T06:45:46;101695.53;;;2.62;100.00
23241;BME280;11789;53.482;9.862;2023-01-31T06:48:14;101695.50;;;2.60;100.00
23241;BME280;11789;53.482;9.862;2023-01-31T06:50:40;101695.53;;;2.62;100.00
23241;BME280;11789;53.482;9.862;2023-01-31T06:53:05;101688.75;;;2.63;100.00
23241;BME280;11789;53.482;9.862;2023-01-31T06:55:31;101681.91;;;2.62;100.00
23241;BME280;11789;53.482;9.862;2023-01-31T06:57:57;101686.16;;;2.61;100.00
23241;BME280;11789;53.482;9.862;2023-01-31T07:00:22;101675.13;;;2.62;100.00
23241;BME280;11789;53.482;9.862;2023-01-31T07:02:51;101670.84;;;2.61;100.00
23241;BME280;11789;53.482;9.862;2023-01-31T07:05:18;101668.28;;;2.61;100.00
23241;BME280;11789;53.482;9.862;2023-01-31T07:07:43;101670.03;;;2.62;100.00
23241;BME280;11789;53.482;9.862;2023-01-31T07:10:10;101663.31;;;2.64;100.00
23241;BME280;11789;53.482;9.862;2023-01-31T07:12:35;101657.34;;;2.64;100.00
23241;BME280;11789;53.482;9.862;2023-01-31T07:15:01;101657.34;;;2.64;100.00
23241;BME280;11789;53.482;9.862;2023-01-31T07:17:26;101648.00;;;2.64;100.00
23241;BME280;11789;53.482;9.862;2023-01-31T07:19:52;101643.00;;;2.67;100.00
23241;BME280;11789;53.482;9.862;2023-01-31T07:22:17;101647.31;;;2.68;100.00
23241;BME280;11789;53.482;9.862;2023-01-31T07:24:43;101630.41;;;2.70;100.00
23241;BME280;11789;53.482;9.862;2023-01-31T07:27:12;101622.75;;;2.70;100.00
23241;BME280;11789;53.482;9.862;2023-01-31T07:29:38;101621.09;;;2.72;100.00
23241;BME280;11789;53.482;9.862;2023-01-31T07:32:03;101621.97;;;2.73;100.00
23241;BME280;11789;53.482;9.862;2023-01-31T07:34:29;101614.31;;;2.73;100.00
23241;BME280;11789;53.482;9.862;2023-01-31T07:36:55;101608.50;;;2.75;100.00
23241;BME280;11789;53.482;9.862;2023-01-31T07:39:20;101609.41;;;2.77;100.00
23241;BME280;11789;53.482;9.862;2023-01-31T07:41:46;101604.31;;;2.77;100.00
23241;BME280;11789;53.482;9.862;2023-01-31T07:44:11;101597.66;;;2.81;100.00
23241;BME280;11789;53.482;9.862;2023-01-31T07:46:49;101581.56;;;2.83;100.00
23241;BME280;11789;53.482;9.862;2023-01-31T07:49:16;101569.72;;;2.84;100.00
23241;BME280;11789;53.482;9.862;2023-01-31T07:51:41;101583.53;;;2.89;100.00
23241;BME280;11789;53.482;9.862;2023-01-31T07:54:09;101584.53;;;2.93;100.00
23241;BME280;11789;53.482;9.862;2023-01-31T07:56:35;101576.88;;;2.93;100.00
23241;BME280;11789;53.482;9.862;2023-01-31T07:59:01;101574.31;;;2.93;100.00
23241;BME280;11789;53.482;9.862;2023-01-31T08:01:27;101569.19;;;2.93;100.00
23241;BME280;11789;53.482;9.862;2023-01-31T08:04:14;101566.78;;;2.96;100.00
23241;BME280;11789;53.482;9.862;2023-01-31T08:06:42;101562.59;;;2.98;100.00
23241;BME280;11789;53.482;9.862;2023-01-31T08:09:08;101564.34;;;2.99;100.00
23241;BME280;11789;53.482;9.862;2023-01-31T08:11:34;101550.78;;;3.00;100.00
23241;BME280;11789;53.482;9.862;2023-01-31T08:14:00;101551.72;;;3.02;100.00
23241;BME280;11789;53.482;9.862;2023-01-31T08:16:25;101549.28;;;3.05;100.00
23241;BME280;11789;53.482;9.862;2023-01-31T08:18:51;101540.91;;;3.09;100.00
23241;BME280;11789;53.482;9.862;2023-01-31T08:21:18;101520.56;;;3.10;100.00
23241;BME280;11789;53.482;9.862;2023-01-31T08:23:44;101538.53;;;3.13;100.00
23241;BME280;11789;53.482;9.862;2023-01-31T08:26:18;101527.59;;;3.16;100.00
23241;BME280;11789;53.482;9.862;2023-01-31T08:28:45;101534.50;;;3.19;100.00
23241;BME280;11789;53.482;9.862;2023-01-31T08:31:14;101533.81;;;3.23;100.00
23241;BME280;11789;53.482;9.862;2023-01-31T08:33:39;101519.47;;;3.26;100.00
23241;BME280;11789;53.482;9.862;2023-01-31T08:36:15;101518.63;;;3.26;100.00
23241;BME280;11789;53.482;9.862;2023-01-31T08:38:41;101529.75;;;3.28;100.00
23241;BME280;11789;53.482;9.862;2023-01-31T08:41:07;101516.97;;;3.28;100.00
23241;BME280;11789;53.482;9.862;2023-01-31T08:43:33;101522.13;;;3.29;100.00
23241;BME280;11789;53.482;9.862;2023-01-31T08:45:58;101510.34;;;3.33;100.00
23241;BME280;11789;53.482;9.862;2023-01-31T08:48:24;101515.47;;;3.33;100.00
23241;BME280;11789;53.482;9.862;2023-01-31T08:50:49;101501.97;;;3.35;100.00
23241;BME280;11789;53.482;9.862;2023-01-31T08:53:14;101498.59;;;3.36;100.00
23241;BME280;11789;53.482;9.862;2023-01-31T08:55:40;101492.69;;;3.39;100.00
23241;BME280;11789;53.482;9.862;2023-01-31T08:58:05;101485.97;;;3.41;100.00
23241;BME280;11789;53.482;9.862;2023-01-31T09:00:31;101478.41;;;3.44;100.00
23241;BME280;11789;53.482;9.862;2023-01-31T09:02:58;101487.06;;;3.48;100.00
23241;BME280;11789;53.482;9.862;2023-01-31T09:05:25;101480.34;;;3.50;100.00
23241;BME280;11789;53.482;9.862;2023-01-31T09:07:51;101473.56;;;3.50;100.00
23241;BME280;11789;53.482;9.862;2023-01-31T09:10:18;101484.66;;;3.51;100.00
23241;BME280;11789;53.482;9.862;2023-01-31T09:12:44;101472.91;;;3.56;100.00
23241;BME280;11789;53.482;9.862;2023-01-31T09:15:11;101465.25;;;3.56;100.00
23241;BME280;11789;53.482;9.862;2023-01-31T09:17:38;101464.37;;;3.55;100.00
23241;BME280;11789;53.482;9.862;2023-01-31T09:20:04;101458.41;;;3.55;100.00
23241;BME280;11789;53.482;9.862;2023-01-31T09:22:32;101447.22;;;3.53;100.00
23241;BME280;11789;53.482;9.862;2023-01-31T09:24:58;101446.31;;;3.51;100.00
23241;BME280;11789;53.482;9.862;2023-01-31T09:27:24;101441.94;;;3.48;100.00
23241;BME280;11789;53.482;9.862;2023-01-31T09:29:49;101436.78;;;3.47;100.00
23241;BME280;11789;53.482;9.862;2023-01-31T09:32:15;101433.28;;;3.45;100.00
23241;BME280;11789;53.482;9.862;2023-01-31T09:34:40;101428.06;;;3.42;100.00
23241;BME280;11789;53.482;9.862;2023-01-31T09:37:06;101421.25;;;3.42;100.00
23241;BME280;11789;53.482;9.862;2023-01-31T09:39:31;101427.25;;;3.43;100.00
23241;BME280;11789;53.482;9.862;2023-01-31T09:42:02;101421.31;;;3.44;100.00
23241;BME280;11789;53.482;9.862;2023-01-31T09:44:43;101413.66;;;3.44;100.00
23241;BME280;11789;53.482;9.862;2023-01-31T09:47:20;101409.47;;;3.46;100.00
23241;BME280;11789;53.482;9.862;2023-01-31T09:49:51;101408.69;;;3.48;100.00
23241;BME280;11789;53.482;9.862;2023-01-31T09:52:19;101394.22;;;3.49;100.00
23241;BME280;11789;53.482;9.862;2023-01-31T09:54:46;101394.31;;;3.50;100.00
23241;BME280;11789;53.482;9.862;2023-01-31T09:57:18;101380.66;;;3.50;100.00
23241;BME280;11789;53.482;9.862;2023-01-31T09:59:51;101377.28;;;3.51;100.00
23241;BME280;11789;53.482;9.862;2023-01-31T10:02:29;101378.91;;;3.49;100.00
23241;BME280;11789;53.482;9.862;2023-01-31T10:12:55;101358.03;;;3.60;100.00
23241;BME280;11789;53.482;9.862;2023-01-31T10:15:40;101354.53;;;3.58;100.00
23241;BME280;11789;53.482;9.862;2023-01-31T10:18:11;101365.75;;;3.62;100.00
23241;BME280;11789;53.482;9.862;2023-01-31T10:20:42;101357.09;;;3.58;100.00
23241;BME280;11789;53.482;9.862;2023-01-31T10:41:38;101336.22;;;3.70;100.00
23241;BME280;11789;53.482;9.862;2023-01-31T10:44:14;101327.72;;;3.71;100.00
23241;BME280;11789;53.482;9.862;2023-01-31T10:46:42;101325.25;;;3.74;100.00
23241;BME280;11789;53.482;9.862;2023-01-31T10:49:08;101311.69;;;3.75;100.00
23241;BME280;11789;53.482;9.862;2023-01-31T10:52:11;101308.31;;;3.76;100.00
23241;BME280;11789;53.482;9.862;2023-01-31T10:57:31;101287.16;;;3.82;100.00
23241;BME280;11789;53.482;9.862;2023-01-31T10:59:57;101288.03;;;3.82;100.00
23241;BME280;11789;53.482;9.862;2023-01-31T11:02:25;101276.97;;;3.83;100.00
23241;BME280;11789;53.482;9.862;2023-01-31T11:04:53;101279.66;;;3.86;100.00
23241;BME280;11789;53.482;9.862;2023-01-31T11:07:19;101269.50;;;3.89;100.00
23241;BME280;11789;53.482;9.862;2023-01-31T11:09:48;101261.13;;;3.94;100.00
23241;BME280;11789;53.482;9.862;2023-01-31T11:12:16;101262.09;;;3.97;100.00
23241;BME280;11789;53.482;9.862;2023-01-31T11:14:41;101261.31;;;4.00;100.00
23241;BME280;11789;53.482;9.862;2023-01-31T11:17:20;101268.19;;;4.01;100.00
23241;BME280;11789;53.482;9.862;2023-01-31T11:19:54;101275.91;;;4.02;100.00
23241;BME280;11789;53.482;9.862;2023-01-31T11:22:25;101291.25;;;4.02;100.00
23241;BME280;11789;53.482;9.862;2023-01-31T11:24:54;101290.44;;;4.03;100.00
23241;BME280;11789;53.482;9.862;2023-01-31T11:27:30;101285.28;;;4.02;100.00
23241;BME280;11789;53.482;9.862;2023-01-31T11:29:58;101273.38;;;4.04;100.00
23241;BME280;11789;53.482;9.862;2023-01-31T11:32:27;101269.25;;;4.07;100.00
23241;BME280;11789;53.482;9.862;2023-01-31T11:35:03;101264.09;;;4.06;100.00
23241;BME280;11789;53.482;9.862;2023-01-31T11:37:32;101265.03;;;4.09;100.00
23241;BME280;11789;53.482;9.862;2023-01-31T11:40:00;101268.47;;;4.10;100.00
23241;BME280;11789;53.482;9.862;2023-01-31T11:42:26;101262.59;;;4.12;100.00
23241;BME280;11789;53.482;9.862;2023-01-31T11:45:00;101260.91;;;4.13;100.00
23241;BME280;11789;53.482;9.862;2023-01-31T11:47:50;101256.69;;;4.15;100.00
23241;BME280;11789;53.482;9.862;2023-01-31T11:50:32;101244.81;;;4.17;100.00
23241;BME280;11789;53.482;9.862;2023-01-31T11:53:01;101241.47;;;4.20;100.00
23241;BME280;11789;53.482;9.862;2023-01-31T11:55:37;101241.47;;;4.20;100.00
23241;BME280;11789;53.482;9.862;2023-01-31T11:58:20;101241.53;;;4.21;100.00
23241;BME280;11789;53.482;9.862;2023-01-31T12:00:56;101241.62;;;4.24;100.00
23241;BME280;11789;53.482;9.862;2023-01-31T12:03:23;101229.66;;;4.23;100.00
23241;BME280;11789;53.482;9.862;2023-01-31T12:05:58;101238.22;;;4.25;100.00
23241;BME280;11789;53.482;9.862;2023-01-31T12:08:42;101221.25;;;4.27;100.00
23241;BME280;11789;53.482;9.862;2023-01-31T12:13:53;101223.87;;;4.30;100.00
23241;BME280;11789;53.482;9.862;2023-01-31T12:16:26;101220.47;;;4.30;100.00
23241;BME280;11789;53.482;9.862;2023-01-31T12:21:42;101218.00;;;4.33;100.00
23241;BME280;11789;53.482;9.862;2023-01-31T12:35:39;101195.31;;;4.45;100.00
23241;BME280;11789;53.482;9.862;2023-01-31T12:46:47;101194.75;;;4.55;100.00
23241;BME280;11789;53.482;9.862;2023-01-31T12:49:37;101187.16;;;4.57;100.00
23241;BME280;11789;53.482;9.862;2023-01-31T12:52:22;101182.09;;;4.60;100.00
23241;BME280;11789;53.482;9.862;2023-01-31T12:54:53;101182.19;;;4.63;100.00
23241;BME280;11789;53.482;9.862;2023-01-31T13:05:49;101176.25;;;4.64;100.00
23241;BME280;11789;53.482;9.862;2023-01-31T13:08:18;101178.81;;;4.64;100.00
23241;BME280;11789;53.482;9.862;2023-01-31T13:10:51;101168.56;;;4.64;100.00
23241;BME280;11789;53.482;9.862;2023-01-31T13:13:33;101161.72;;;4.63;100.00
23241;BME280;11789;53.482;9.862;2023-01-31T13:16:12;101152.47;;;4.68;100.00
23241;BME280;11789;53.482;9.862;2023-01-31T13:18:39;101141.41;;;4.71;100.00
23241;BME280;11789;53.482;9.862;2023-01-31T13:21:13;101144.91;;;4.73;100.00
23241;BME280;11789;53.482;9.862;2023-01-31T13:23:46;101150.91;;;4.73;100.00
23241;BME280;11789;53.482;9.862;2023-01-31T13:26:32;101156.09;;;4.76;100.00
23241;BME280;11789;53.482;9.862;2023-01-31T13:29:03;101149.34;;;4.78;100.00
23241;BME280;11789;53.482;9.862;2023-01-31T13:31:53;101153.53;;;4.76;100.00
23241;BME280;11789;53.482;9.862;2023-01-31T13:34:25;101151.94;;;4.80;100.00
23241;BME280;11789;53.482;9.862;2023-01-31T13:37:05;101152.91;;;4.85;100.00
23241;BME280;11789;53.482;9.862;2023-01-31T13:39:54;101149.53;;;4.86;100.00
23241;BME280;11789;53.482;9.862;2023-01-31T13:42:22;101149.72;;;4.92;100.00
23241;BME280;11789;53.482;9.862;2023-01-31T13:44:48;101139.50;;;4.93;100.00
23241;BME280;11789;53.482;9.862;2023-01-31T13:47:36;101137.06;;;4.98;100.00
23241;BME280;11789;53.482;9.862;2023-01-31T13:50:34;101133.69;;;5.01;100.00
23241;BME280;11789;53.482;9.862;2023-01-31T13:53:06;101141.47;;;5.04;100.00
23241;BME280;11789;53.482;9.862;2023-01-31T13:55:39;101137.25;;;5.06;100.00
23241;BME280;11789;53.482;9.862;2023-01-31T13:58:27;101123.56;;;5.05;100.00
23241;BME280;11789;53.482;9.862;2023-01-31T14:01:01;101123.59;;;5.07;100.00
23241;BME280;11789;53.482;9.862;2023-01-31T14:03:28;101106.59;;;5.09;100.00
23241;BME280;11789;53.482;9.862;2023-01-31T14:05:56;101086.12;;;5.12;100.00
23241;BME280;11789;53.482;9.862;2023-01-31T14:09:02;101092.16;;;5.12;100.00
23241;BME280;11789;53.482;9.862;2023-01-31T14:16:40;101087.94;;;5.14;100.00
23241;BME280;11789;53.482;9.862;2023-01-31T14:27:27;101094.75;;;5.14;100.00
23241;BME280;11789;53.482;9.862;2023-01-31T14:32:45;101096.38;;;5.12;100.00
23241;BME280;11789;53.482;9.862;2023-01-31T14:52:19;101097.22;;;5.11;100.00
23241;BME280;11789;53.482;9.862;2023-01-31T14:55:17;101093.88;;;5.13;100.00
23241;BME280;11789;53.482;9.862;2023-01-31T14:57:47;101097.28;;;5.12;100.00
23241;BME280;11789;53.482;9.862;2023-01-31T15:00:26;101087.91;;;5.13;100.00
23241;BME280;11789;53.482;9.862;2023-01-31T15:03:07;101093.06;;;5.14;100.00
23241;BME280;11789;53.482;9.862;2023-01-31T15:05:44;101087.91;;;5.13;100.00
23241;BME280;11789;53.482;9.862;2023-01-31T15:10:57;101097.31;;;5.14;100.00
23241;BME280;11789;53.482;9.862;2023-01-31T15:13:45;101089.62;;;5.14;100.00
23241;BME280;11789;53.482;9.862;2023-01-31T15:18:49;101084.50;;;5.14;100.00
23241;BME280;11789;53.482;9.862;2023-01-31T15:21:26;101090.53;;;5.16;100.00
23241;BME280;11789;53.482;9.862;2023-01-31T15:23:53;101096.47;;;5.15;100.00